createdAt,value
2018-07-09T00:00:50.771Z,21.47
2018-07-09T00:01:50.758Z,21.44
2018-07-09T00:02:50.746Z,21.50
2018-07-09T00:03:50.734Z,21.43
2018-07-09T00:04:50.724Z,21.49
2018-07-09T00:05:50.711Z,21.43
2018-07-09T00:06:50.711Z,21.49
2018-07-09T00:07:50.689Z,21.46
2018-07-09T00:08:50.676Z,21.47
2018-07-09T00:09:50.669Z,21.49
2018-07-09T00:10:50.656Z,21.44
2018-07-09T00:11:50.641Z,21.44
2018-07-09T00:12:50.630Z,21.52
2018-07-09T00:13:50.620Z,21.52
2018-07-09T00:14:50.610Z,21.54
2018-07-09T00:15:50.595Z,21.42
2018-07-09T00:16:50.586Z,21.42
2018-07-09T00:17:50.571Z,21.40
2018-07-09T00:18:50.564Z,21.49
2018-07-09T00:19:50.552Z,21.44
2018-07-09T00:20:50.541Z,21.43
2018-07-09T00:21:50.523Z,21.42
2018-07-09T00:22:50.512Z,21.40
2018-07-09T00:23:50.521Z,21.38
2018-07-09T00:24:50.489Z,21.34
2018-07-09T00:25:50.480Z,21.35
2018-07-09T00:26:50.466Z,21.29
2018-07-09T00:27:50.452Z,21.28
2018-07-09T00:28:50.444Z,21.31
2018-07-09T00:29:50.428Z,21.28
2018-07-09T00:30:50.419Z,21.27
2018-07-09T00:31:50.406Z,21.28
2018-07-09T00:32:50.394Z,21.25
2018-07-09T00:33:50.382Z,21.16
2018-07-09T00:34:50.373Z,21.17
2018-07-09T00:35:50.360Z,21.09
2018-07-09T00:36:50.348Z,21.14
2018-07-09T00:37:50.341Z,21.14
2018-07-09T00:38:50.328Z,21.07
2018-07-09T00:39:50.311Z,21.03
2018-07-09T00:40:50.310Z,21.09
2018-07-09T00:41:50.287Z,21.01
2018-07-09T00:42:50.275Z,20.97
2018-07-09T00:43:50.263Z,20.84
2018-07-09T00:44:50.252Z,20.80
2018-07-09T00:45:50.239Z,20.85
2018-07-09T00:46:50.233Z,20.77
2018-07-09T00:47:50.215Z,20.80
2018-07-09T00:48:50.207Z,20.67
2018-07-09T00:49:50.195Z,20.66
2018-07-09T00:50:50.382Z,20.69
2018-07-09T00:55:13.526Z,20.59
2018-07-09T00:56:13.511Z,20.66
2018-07-09T00:57:13.500Z,20.47
2018-07-09T00:58:13.488Z,20.50
2018-07-09T00:59:13.476Z,20.51
2018-07-09T01:00:13.469Z,20.36
2018-07-09T01:01:13.452Z,20.35
2018-07-09T01:02:13.441Z,20.38
2018-07-09T01:04:00.966Z,20.32
2018-07-09T01:05:00.956Z,20.35
2018-07-09T01:06:00.947Z,20.33
2018-07-09T01:07:00.931Z,20.38
2018-07-09T01:08:00.927Z,20.38
2018-07-09T01:09:00.907Z,20.29
2018-07-09T01:10:00.892Z,20.38
2018-07-09T01:11:00.893Z,20.31
2018-07-09T01:12:00.875Z,20.31
2018-07-09T01:13:00.859Z,20.35
2018-07-09T01:14:00.844Z,20.36
2018-07-09T01:15:00.833Z,20.29
2018-07-09T01:16:00.821Z,20.29
2018-07-09T01:17:00.815Z,20.26
2018-07-09T01:18:00.796Z,20.23
2018-07-09T01:19:00.784Z,20.36
2018-07-09T01:20:00.771Z,20.26
2018-07-09T01:21:00.760Z,20.31
2018-07-09T01:22:00.747Z,20.21
2018-07-09T01:23:00.736Z,20.18
2018-07-09T01:24:00.722Z,20.21
2018-07-09T01:25:00.711Z,20.38
2018-07-09T01:26:00.698Z,20.35
2018-07-09T01:27:00.689Z,20.21
2018-07-09T01:28:00.674Z,20.20
2018-07-09T01:29:00.659Z,20.16
2018-07-09T01:30:00.649Z,20.16
2018-07-09T01:31:00.635Z,20.13
2018-07-09T01:32:00.635Z,20.10
2018-07-09T01:33:00.612Z,20.11
2018-07-09T01:34:00.598Z,20.11
2018-07-09T01:35:00.586Z,20.03
2018-07-09T01:36:00.575Z,20.06
2018-07-09T01:37:00.562Z,20.10
2018-07-09T01:38:00.548Z,20.13
2018-07-09T01:39:00.536Z,20.18
2018-07-09T01:40:00.524Z,20.10
2018-07-09T01:41:00.510Z,20.01
2018-07-09T01:42:00.500Z,19.96
2018-07-09T01:43:00.487Z,19.94
2018-07-09T01:44:00.474Z,20.01
2018-07-09T01:45:00.460Z,20.06
2018-07-09T01:46:00.452Z,19.96
2018-07-09T01:47:00.436Z,20.02
2018-07-09T01:48:00.423Z,19.88
2018-07-09T01:49:00.416Z,19.99
2018-07-09T01:50:00.397Z,20.02
2018-07-09T01:51:00.389Z,19.94
2018-07-09T01:52:00.372Z,19.91
2018-07-09T01:53:00.364Z,19.99
2018-07-09T01:54:00.347Z,19.84
2018-07-09T01:55:00.333Z,19.91
2018-07-09T01:56:00.320Z,19.95
2018-07-09T01:57:00.309Z,19.91
2018-07-09T01:58:00.295Z,19.92
2018-07-09T01:59:00.282Z,19.87
2018-07-09T02:00:00.270Z,19.84
2018-07-09T02:01:00.261Z,19.87
2018-07-09T02:02:00.244Z,19.86
2018-07-09T02:03:00.232Z,19.84
2018-07-09T02:04:00.221Z,19.69
2018-07-09T02:05:00.207Z,19.62
2018-07-09T02:06:00.195Z,19.56
2018-07-09T02:07:00.182Z,19.69
2018-07-09T02:08:00.167Z,19.65
2018-07-09T02:09:00.154Z,19.69
2018-07-09T02:10:00.146Z,19.71
2018-07-09T02:11:00.129Z,19.69
2018-07-09T02:12:00.116Z,19.71
2018-07-09T02:13:00.109Z,19.59
2018-07-09T02:14:00.094Z,19.56
2018-07-09T02:15:00.084Z,19.41
2018-07-09T02:16:00.064Z,19.55
2018-07-09T02:17:00.052Z,19.48
2018-07-09T02:18:00.040Z,19.48
2018-07-09T02:19:00.028Z,19.41
2018-07-09T02:20:00.036Z,19.33
2018-07-09T02:20:59.998Z,19.47
2018-07-09T02:21:59.987Z,19.47
2018-07-09T02:22:59.974Z,19.46
2018-07-09T02:23:59.961Z,19.46
2018-07-09T02:24:59.948Z,19.44
2018-07-09T02:25:59.934Z,19.46
2018-07-09T02:26:59.921Z,19.40
2018-07-09T02:27:59.910Z,19.37
2018-07-09T02:28:59.898Z,19.46
2018-07-09T02:29:59.883Z,19.48
2018-07-09T02:30:59.870Z,19.44
2018-07-09T02:31:59.857Z,19.41
2018-07-09T02:32:59.844Z,19.41
2018-07-09T02:33:59.829Z,19.31
2018-07-09T02:34:59.817Z,19.23
2018-07-09T02:35:59.804Z,19.14
2018-07-09T02:36:59.791Z,19.18
2018-07-09T02:37:59.777Z,19.10
2018-07-09T02:38:59.765Z,19.11
2018-07-09T02:39:59.756Z,19.23
2018-07-09T02:40:59.760Z,19.16
2018-07-09T02:41:59.725Z,19.07
2018-07-09T02:42:59.713Z,19.06
2018-07-09T02:43:59.699Z,19.02
2018-07-09T02:44:59.684Z,19.08
2018-07-09T02:45:59.673Z,19.19
2018-07-09T02:46:59.661Z,19.21
2018-07-09T02:47:59.648Z,19.14
2018-07-09T02:48:59.649Z,19.07
2018-07-09T02:49:59.619Z,19.04
2018-07-09T02:50:59.607Z,19.16
2018-07-09T02:51:59.594Z,19.16
2018-07-09T02:52:59.586Z,19.11
2018-07-09T02:53:59.567Z,18.99
2018-07-09T02:54:59.556Z,19.04
2018-07-09T02:55:59.549Z,18.99
2018-07-09T02:56:59.527Z,19.04
2018-07-09T02:57:59.514Z,19.02
2018-07-09T02:58:59.502Z,19.00
2018-07-09T02:59:59.490Z,19.02
2018-07-09T03:00:59.601Z,19.02
2018-07-09T03:01:59.459Z,18.94
2018-07-09T03:02:59.448Z,18.92
2018-07-09T03:03:59.435Z,18.98
2018-07-09T03:04:59.425Z,18.91
2018-07-09T03:05:59.408Z,18.94
2018-07-09T03:06:59.395Z,18.99
2018-07-09T03:07:59.384Z,18.94
2018-07-09T03:08:59.370Z,18.98
2018-07-09T03:09:59.353Z,19.02
2018-07-09T03:10:59.342Z,19.02
2018-07-09T03:11:59.329Z,19.02
2018-07-09T03:12:59.313Z,19.02
2018-07-09T03:13:59.301Z,18.91
2018-07-09T03:14:59.288Z,18.99
2018-07-09T03:15:59.276Z,19.00
2018-07-09T03:16:59.266Z,19.04
2018-07-09T03:17:59.249Z,19.02
2018-07-09T03:18:59.285Z,18.95
2018-07-09T03:19:59.218Z,19.02
2018-07-09T03:20:59.210Z,18.99
2018-07-09T03:21:59.199Z,18.92
2018-07-09T03:22:59.191Z,18.95
2018-07-09T03:23:59.168Z,18.98
2018-07-09T03:24:59.151Z,18.85
2018-07-09T03:25:59.200Z,18.91
2018-07-09T03:26:59.124Z,18.87
2018-07-09T03:27:59.114Z,18.87
2018-07-09T03:28:59.102Z,18.85
2018-07-09T03:29:59.085Z,18.87
2018-07-09T03:30:59.086Z,18.81
2018-07-09T03:31:59.073Z,18.76
2018-07-09T03:32:59.050Z,18.95
2018-07-09T03:33:59.031Z,18.87
2018-07-09T03:34:59.018Z,18.82
2018-07-09T03:35:59.004Z,18.75
2018-07-09T03:36:58.992Z,18.81
2018-07-09T03:37:58.982Z,18.82
2018-07-09T03:38:58.963Z,18.84
2018-07-09T03:39:58.950Z,18.91
2018-07-09T03:40:58.944Z,18.87
2018-07-09T03:41:58.923Z,18.87
2018-07-09T03:42:58.909Z,18.67
2018-07-09T03:43:58.901Z,18.70
2018-07-09T03:44:58.883Z,18.72
2018-07-09T03:45:58.867Z,18.70
2018-07-09T03:46:58.854Z,18.70
2018-07-09T03:47:58.843Z,18.72
2018-07-09T03:48:58.832Z,18.69
2018-07-09T03:49:58.818Z,18.72
2018-07-09T03:50:58.846Z,18.67
2018-07-09T03:51:58.784Z,18.67
2018-07-09T03:52:58.777Z,18.65
2018-07-09T03:53:58.760Z,18.65
2018-07-09T03:54:58.746Z,18.54
2018-07-09T03:55:58.740Z,18.58
2018-07-09T03:56:58.720Z,18.50
2018-07-09T03:57:58.705Z,18.60
2018-07-09T03:58:58.691Z,18.60
2018-07-09T03:59:58.677Z,18.51
2018-07-09T04:00:58.668Z,18.51
2018-07-09T04:01:58.651Z,18.35
2018-07-09T04:02:58.638Z,18.44
2018-07-09T04:03:58.622Z,18.37
2018-07-09T04:04:58.609Z,18.47
2018-07-09T04:05:58.597Z,18.39
2018-07-09T04:06:58.583Z,18.47
2018-07-09T04:07:58.573Z,18.51
2018-07-09T04:08:58.560Z,18.39
2018-07-09T04:09:58.543Z,18.33
2018-07-09T04:10:58.527Z,18.37
2018-07-09T04:12:17.744Z,18.35
2018-07-09T04:13:17.730Z,18.35
2018-07-09T04:14:17.709Z,18.32
2018-07-09T04:15:17.699Z,18.39
2018-07-09T04:16:17.685Z,18.37
2018-07-09T04:17:17.669Z,18.36
2018-07-09T04:18:17.655Z,18.37
2018-07-09T04:19:17.645Z,18.37
2018-07-09T04:20:17.631Z,18.35
2018-07-09T04:21:17.616Z,18.36
2018-07-09T04:22:17.602Z,18.36
2018-07-09T04:23:17.589Z,18.39
2018-07-09T04:24:17.576Z,18.42
2018-07-09T04:25:17.560Z,18.35
2018-07-09T04:26:17.575Z,18.33
2018-07-09T04:27:17.536Z,18.27
2018-07-09T04:28:17.519Z,18.37
2018-07-09T04:29:17.506Z,18.32
2018-07-09T04:30:17.492Z,18.27
2018-07-09T04:31:17.480Z,18.41
2018-07-09T04:32:17.466Z,18.30
2018-07-09T04:33:17.455Z,18.35
2018-07-09T04:34:17.438Z,18.33
2018-07-09T04:35:17.432Z,18.32
2018-07-09T04:36:17.413Z,18.37
2018-07-09T04:37:17.397Z,18.39
2018-07-09T04:38:17.385Z,18.44
2018-07-09T04:39:17.370Z,18.48
2018-07-09T04:40:17.356Z,18.47
2018-07-09T04:41:17.345Z,18.51
2018-07-09T04:42:17.331Z,18.47
2018-07-09T04:43:17.326Z,18.44
2018-07-09T04:44:17.301Z,18.51
2018-07-09T04:45:17.291Z,18.52
2018-07-09T04:46:17.276Z,18.51
2018-07-09T04:47:17.278Z,18.55
2018-07-09T04:48:17.252Z,18.57
2018-07-09T04:49:17.235Z,18.55
2018-07-09T04:50:17.222Z,18.60
2018-07-09T04:51:17.207Z,18.62
2018-07-09T04:52:17.198Z,18.60
2018-07-09T04:53:17.181Z,18.70
2018-07-09T04:54:17.168Z,18.57
2018-07-09T04:55:17.156Z,18.70
2018-07-09T04:56:17.145Z,18.67
2018-07-09T04:57:17.136Z,18.67
2018-07-09T04:58:17.112Z,18.69
2018-07-09T04:59:17.099Z,18.72
2018-07-09T05:00:17.088Z,18.67
2018-07-09T05:01:17.072Z,18.69
2018-07-09T05:02:17.060Z,18.70
2018-07-09T05:03:17.043Z,18.73
2018-07-09T05:04:17.032Z,18.73
2018-07-09T05:05:17.024Z,18.82
2018-07-09T05:06:17.012Z,18.81
2018-07-09T05:07:16.995Z,18.80
2018-07-09T05:08:16.979Z,18.81
2018-07-09T05:09:16.966Z,18.82
2018-07-09T05:10:16.954Z,18.84
2018-07-09T05:11:16.941Z,18.87
2018-07-09T05:12:16.925Z,18.82
2018-07-09T05:13:16.909Z,18.84
2018-07-09T05:14:16.898Z,18.82
2018-07-09T05:15:16.883Z,18.81
2018-07-09T05:16:16.870Z,18.90
2018-07-09T05:17:16.856Z,18.94
2018-07-09T05:18:16.841Z,18.84
2018-07-09T05:19:16.829Z,18.91
2018-07-09T05:20:16.816Z,18.99
2018-07-09T05:21:16.803Z,19.08
2018-07-09T05:22:16.788Z,18.98
2018-07-09T05:23:16.776Z,19.00
2018-07-09T05:24:16.766Z,19.06
2018-07-09T05:25:16.753Z,19.02
2018-07-09T05:26:16.737Z,19.06
2018-07-09T05:27:16.720Z,19.06
2018-07-09T05:28:16.708Z,19.06
2018-07-09T05:29:16.694Z,19.13
2018-07-09T05:30:16.681Z,19.11
2018-07-09T05:31:16.668Z,19.18
2018-07-09T05:32:16.654Z,19.14
2018-07-09T05:33:16.657Z,19.19
2018-07-09T05:34:16.629Z,19.25
2018-07-09T05:35:16.614Z,19.25
2018-07-09T05:36:16.601Z,19.28
2018-07-09T05:37:16.592Z,19.32
2018-07-09T05:38:16.583Z,19.33
2018-07-09T05:39:16.562Z,19.33
2018-07-09T05:40:16.554Z,19.39
2018-07-09T05:41:16.534Z,19.33
2018-07-09T05:42:16.521Z,19.44
2018-07-09T05:43:16.508Z,19.36
2018-07-09T05:44:16.498Z,19.40
2018-07-09T05:45:16.482Z,19.47
2018-07-09T05:46:16.466Z,19.56
2018-07-09T05:47:16.458Z,19.50
2018-07-09T05:48:16.440Z,19.56
2018-07-09T05:49:16.430Z,19.62
2018-07-09T05:50:16.416Z,19.61
2018-07-09T05:51:16.405Z,19.63
2018-07-09T05:52:16.392Z,19.62
2018-07-09T05:53:16.417Z,19.69
2018-07-09T05:54:16.364Z,19.66
2018-07-09T05:55:16.351Z,19.69
2018-07-09T05:56:16.335Z,19.69
2018-07-09T05:57:16.326Z,19.71
2018-07-09T05:58:16.310Z,19.73
2018-07-09T05:59:16.296Z,19.76
2018-07-09T06:00:16.285Z,19.78
2018-07-09T06:01:16.269Z,19.87
2018-07-09T06:02:16.258Z,19.81
2018-07-09T06:03:16.246Z,19.88
2018-07-09T06:04:16.231Z,19.88
2018-07-09T06:05:16.218Z,19.88
2018-07-09T06:06:16.204Z,19.96
2018-07-09T06:07:16.191Z,19.99
2018-07-09T06:08:16.181Z,19.95
2018-07-09T06:09:16.166Z,20.03
2018-07-09T06:10:16.152Z,20.03
2018-07-09T06:11:16.238Z,20.17
2018-07-09T06:12:16.129Z,20.11
2018-07-09T06:13:16.124Z,20.02
2018-07-09T06:14:16.102Z,20.13
2018-07-09T06:15:16.089Z,20.03
2018-07-09T06:16:16.076Z,20.06
2018-07-09T06:17:16.063Z,20.10
2018-07-09T06:18:16.055Z,20.08
2018-07-09T06:19:16.062Z,20.05
2018-07-09T06:20:16.027Z,20.17
2018-07-09T06:21:16.010Z,20.13
2018-07-09T06:22:16.000Z,20.10
2018-07-09T06:23:15.984Z,20.05
2018-07-09T06:24:15.972Z,20.08
2018-07-09T06:25:15.959Z,20.20
2018-07-09T06:26:15.944Z,20.16
2018-07-09T06:27:15.934Z,20.28
2018-07-09T06:28:15.922Z,20.21
2018-07-09T06:29:15.907Z,20.18
2018-07-09T06:30:15.896Z,20.18
2018-07-09T06:31:15.886Z,20.21
2018-07-09T06:32:15.869Z,20.35
2018-07-09T06:33:15.861Z,20.29
2018-07-09T06:34:15.844Z,20.39
2018-07-09T06:35:15.831Z,20.31
2018-07-09T06:36:15.817Z,20.28
2018-07-09T06:37:15.806Z,20.33
2018-07-09T06:38:15.800Z,20.23
2018-07-09T06:39:15.782Z,20.33
2018-07-09T06:40:15.768Z,20.26
2018-07-09T06:41:15.755Z,20.33
2018-07-09T06:42:15.742Z,20.35
2018-07-09T06:43:15.730Z,20.33
2018-07-09T06:44:15.717Z,20.39
2018-07-09T06:45:15.704Z,20.39
2018-07-09T06:46:15.691Z,20.48
2018-07-09T06:47:15.677Z,20.51
2018-07-09T06:48:15.680Z,20.52
2018-07-09T06:49:15.658Z,20.48
2018-07-09T06:50:15.639Z,20.66
2018-07-09T06:51:15.625Z,20.58
2018-07-09T06:52:15.618Z,20.58
2018-07-09T06:53:15.603Z,20.72
2018-07-09T06:54:15.588Z,20.73
2018-07-09T06:55:15.576Z,20.77
2018-07-09T06:56:15.604Z,20.82
2018-07-09T06:57:15.562Z,20.84
2018-07-09T06:58:15.538Z,20.98
2018-07-09T06:59:15.525Z,20.97
2018-07-09T07:00:15.517Z,21.01
2018-07-09T07:01:15.500Z,21.01
2018-07-09T07:02:15.531Z,21.04
2018-07-09T07:03:15.477Z,21.07
2018-07-09T07:04:15.464Z,21.24
2018-07-09T07:05:15.452Z,21.24
2018-07-09T07:06:15.446Z,21.28
2018-07-09T07:07:15.425Z,21.25
2018-07-09T07:08:15.419Z,21.29
2018-07-09T07:09:15.491Z,21.37
2018-07-09T07:10:15.440Z,21.43
2018-07-09T07:11:15.376Z,21.43
2018-07-09T07:12:15.380Z,21.52
2018-07-09T07:13:15.352Z,21.52
2018-07-09T07:14:15.355Z,21.49
2018-07-09T07:15:15.330Z,21.62
2018-07-09T07:16:15.317Z,21.69
2018-07-09T07:17:15.307Z,21.64
2018-07-09T07:18:15.293Z,21.62
2018-07-09T07:19:15.284Z,21.72
2018-07-09T07:20:15.270Z,21.71
2018-07-09T07:21:15.257Z,21.83
2018-07-09T07:22:15.245Z,21.88
2018-07-09T07:23:15.231Z,21.96
2018-07-09T07:24:15.220Z,21.96
2018-07-09T07:25:15.210Z,22.09
2018-07-09T07:26:15.194Z,22.09
2018-07-09T07:27:15.184Z,22.07
2018-07-09T07:28:15.180Z,22.25
2018-07-09T07:29:15.161Z,22.36
2018-07-09T07:30:15.147Z,22.21
2018-07-09T07:31:15.137Z,22.37
2018-07-09T07:32:15.127Z,22.27
2018-07-09T07:33:15.193Z,22.33
2018-07-09T07:34:15.109Z,22.31
2018-07-09T07:35:15.089Z,22.33
2018-07-09T07:36:15.078Z,22.22
2018-07-09T07:37:15.067Z,22.27
2018-07-09T07:38:15.054Z,22.39
2018-07-09T07:39:15.105Z,22.36
2018-07-09T07:40:15.032Z,22.35
2018-07-09T07:41:15.021Z,22.46
2018-07-09T07:42:15.007Z,22.49
2018-07-09T07:43:14.996Z,22.51
2018-07-09T07:44:14.985Z,22.60
2018-07-09T07:45:14.974Z,22.55
2018-07-09T07:46:14.961Z,22.62
2018-07-09T07:47:14.951Z,22.70
2018-07-09T07:48:14.939Z,22.64
2018-07-09T07:49:14.931Z,22.67
2018-07-09T07:50:14.979Z,22.77
2018-07-09T07:51:14.905Z,22.80
2018-07-09T07:52:14.909Z,22.95
2018-07-09T07:53:14.885Z,23.05
2018-07-09T07:54:14.871Z,23.05
2018-07-09T07:55:14.861Z,23.15
2018-07-09T07:56:14.850Z,23.36
2018-07-09T07:57:14.841Z,23.48
2018-07-09T07:58:14.826Z,23.87
2018-07-09T07:59:14.816Z,24.25
2018-07-09T08:00:14.805Z,24.83
2018-07-09T08:01:14.795Z,25.47
2018-07-09T08:02:14.785Z,26.12
2018-07-09T08:03:14.773Z,26.69
2018-07-09T08:04:14.764Z,27.10
2018-07-09T08:05:14.756Z,27.55
2018-07-09T08:06:14.740Z,28.04
2018-07-09T08:07:14.728Z,28.56
2018-07-09T08:08:14.736Z,29.06
2018-07-09T08:09:14.780Z,29.70
2018-07-09T08:10:14.702Z,30.15
2018-07-09T08:11:14.689Z,30.13
2018-07-09T08:13:00.542Z,29.68
2018-07-09T08:13:27.979Z,29.16
2018-07-09T08:14:14.657Z,29.05
2018-07-09T08:15:14.649Z,28.81
2018-07-09T08:16:14.641Z,28.98
2018-07-09T08:17:14.638Z,28.95
2018-07-09T08:18:14.622Z,28.95
2018-07-09T08:19:14.612Z,28.95
2018-07-09T08:20:14.609Z,29.11
2018-07-09T08:21:14.596Z,29.14
2018-07-09T08:22:14.591Z,29.31
2018-07-09T08:23:14.583Z,29.30
2018-07-09T08:24:14.573Z,29.76
2018-07-09T08:25:14.637Z,30.04
2018-07-09T08:26:14.558Z,30.15
2018-07-09T08:27:14.552Z,30.20
2018-07-09T08:28:14.548Z,30.01
2018-07-09T08:29:14.542Z,29.37
2018-07-09T08:30:14.533Z,28.92
2018-07-09T08:31:14.570Z,28.74
2018-07-09T08:32:14.521Z,28.62
2018-07-09T08:33:14.523Z,28.22
2018-07-09T08:34:14.521Z,28.15
2018-07-09T08:35:14.505Z,27.92
2018-07-09T08:36:14.500Z,27.93
2018-07-09T08:37:14.498Z,27.93
2018-07-09T08:38:14.493Z,27.93
2018-07-09T08:39:14.487Z,27.84
2018-07-09T08:40:14.479Z,27.57
2018-07-09T08:41:14.479Z,27.63
2018-07-09T08:42:14.470Z,27.74
2018-07-09T08:43:14.463Z,27.88
2018-07-09T08:44:14.462Z,28.07
2018-07-09T08:45:14.457Z,28.14
2018-07-09T08:46:14.449Z,28.29
2018-07-09T08:47:14.450Z,28.36
2018-07-09T08:48:14.443Z,28.48
2018-07-09T08:49:14.439Z,28.62
2018-07-09T08:50:14.435Z,28.67
2018-07-09T08:51:14.430Z,28.34
2018-07-09T08:52:14.426Z,28.27
2018-07-09T08:53:14.473Z,28.03
2018-07-09T08:54:14.417Z,27.90
2018-07-09T08:55:14.440Z,27.63
2018-07-09T08:56:14.412Z,27.27
2018-07-09T08:57:14.409Z,27.18
2018-07-09T08:58:14.401Z,27.25
2018-07-09T08:59:14.397Z,27.44
2018-07-09T09:00:14.393Z,27.51
2018-07-09T09:01:14.389Z,27.59
2018-07-09T09:02:14.385Z,27.77
2018-07-09T09:03:14.381Z,27.92
2018-07-09T09:04:14.376Z,28.21
2018-07-09T09:05:14.374Z,28.37
2018-07-09T09:06:14.369Z,28.43
2018-07-09T09:07:14.365Z,28.46
2018-07-09T09:08:14.362Z,28.56
2018-07-09T09:09:14.359Z,28.58
2018-07-09T09:10:14.354Z,28.34
2018-07-09T09:11:14.347Z,28.27
2018-07-09T09:12:14.343Z,28.07
2018-07-09T09:13:14.343Z,27.87
2018-07-09T09:14:14.340Z,27.90
2018-07-09T09:15:14.338Z,28.11
2018-07-09T09:16:14.325Z,28.25
2018-07-09T09:17:14.325Z,28.55
2018-07-09T09:18:14.320Z,28.90
2018-07-09T09:19:14.316Z,28.86
2018-07-09T09:20:14.311Z,28.62
2018-07-09T09:21:14.303Z,28.68
2018-07-09T09:22:14.299Z,28.67
2018-07-09T09:23:14.294Z,28.66
2018-07-09T09:24:14.294Z,28.74
2018-07-09T09:25:14.287Z,28.74
2018-07-09T09:26:14.284Z,28.73
2018-07-09T09:27:14.278Z,28.64
2018-07-09T09:28:14.275Z,28.74
2018-07-09T09:29:14.269Z,28.89
2018-07-09T09:30:14.263Z,28.74
2018-07-09T09:31:14.276Z,28.67
2018-07-09T09:32:14.260Z,28.76
2018-07-09T09:33:14.252Z,29.05
2018-07-09T09:34:14.253Z,29.34
2018-07-09T09:35:14.242Z,29.52
2018-07-09T09:36:14.237Z,29.67
2018-07-09T09:37:14.243Z,29.90
2018-07-09T09:38:14.230Z,29.36
2018-07-09T09:39:14.225Z,29.24
2018-07-09T09:40:14.230Z,29.43
2018-07-09T09:41:14.220Z,29.67
2018-07-09T09:42:14.212Z,30.11
2018-07-09T09:43:14.245Z,30.13
2018-07-09T09:44:14.205Z,30.23
2018-07-09T09:45:14.205Z,30.43
2018-07-09T09:46:14.195Z,30.91
2018-07-09T09:47:14.193Z,31.25
2018-07-09T09:48:14.189Z,31.17
2018-07-09T09:49:14.185Z,31.38
2018-07-09T09:50:14.180Z,31.65
2018-07-09T09:51:14.190Z,31.76
2018-07-09T09:52:14.173Z,31.96
2018-07-09T09:53:14.170Z,31.86
2018-07-09T09:54:14.167Z,31.75
2018-07-09T09:55:14.162Z,31.86
2018-07-09T09:56:14.161Z,32.11
2018-07-09T09:57:14.159Z,32.29
2018-07-09T09:58:14.152Z,32.59
2018-07-09T09:59:14.150Z,32.97
2018-07-09T10:00:14.152Z,33.31
2018-07-09T10:01:14.144Z,33.60
2018-07-09T10:02:14.144Z,33.63
2018-07-09T10:03:14.138Z,33.42
2018-07-09T10:04:14.135Z,33.18
2018-07-09T10:05:14.137Z,32.79
2018-07-09T10:06:14.160Z,32.38
2018-07-09T10:07:14.127Z,31.86
2018-07-09T10:08:14.124Z,31.47
2018-07-09T10:09:14.122Z,31.47
2018-07-09T10:10:14.119Z,31.14
2018-07-09T10:11:14.114Z,31.01
2018-07-09T10:12:14.114Z,30.77
2018-07-09T10:13:14.113Z,30.43
2018-07-09T10:14:14.107Z,30.23
2018-07-09T10:15:14.109Z,30.08
2018-07-09T10:16:14.104Z,29.87
2018-07-09T10:17:14.100Z,29.78
2018-07-09T10:18:14.095Z,29.48
2018-07-09T10:19:14.094Z,29.34
2018-07-09T10:20:14.097Z,29.27
2018-07-09T10:21:14.087Z,29.26
2018-07-09T10:22:14.083Z,29.34
2018-07-09T10:23:14.171Z,29.30
2018-07-09T10:24:14.076Z,29.14
2018-07-09T10:25:14.075Z,29.21
2018-07-09T10:26:14.074Z,29.49
2018-07-09T10:27:14.066Z,29.80
2018-07-09T10:28:14.063Z,29.97
2018-07-09T10:29:14.063Z,30.26
2018-07-09T10:30:14.059Z,30.51
2018-07-09T10:31:14.054Z,30.92
2018-07-09T10:32:14.059Z,31.36
2018-07-09T10:33:14.050Z,31.70
2018-07-09T10:34:14.044Z,32.08
2018-07-09T10:35:14.042Z,32.32
2018-07-09T10:36:14.040Z,32.75
2018-07-09T10:37:14.038Z,33.28
2018-07-09T10:38:14.035Z,33.81
2018-07-09T10:39:14.032Z,33.72
2018-07-09T10:40:14.032Z,33.86
2018-07-09T10:41:14.032Z,34.19
2018-07-09T10:42:14.025Z,34.75
2018-07-09T10:43:14.022Z,35.18
2018-07-09T10:44:14.022Z,35.66
2018-07-09T10:45:14.023Z,35.60
2018-07-09T10:46:14.019Z,35.71
2018-07-09T10:47:14.060Z,36.08
2018-07-09T10:48:14.016Z,36.34
2018-07-09T10:49:14.013Z,36.66
2018-07-09T10:50:14.011Z,36.72
2018-07-09T10:51:14.014Z,36.50
2018-07-09T10:52:14.009Z,36.31
2018-07-09T10:53:14.010Z,36.34
2018-07-09T10:54:14.009Z,36.66
2018-07-09T10:55:14.045Z,36.69
2018-07-09T10:56:14.004Z,36.69
2018-07-09T10:57:14.004Z,36.98
2018-07-09T10:58:14.006Z,36.95
2018-07-09T10:59:14.004Z,36.65
2018-07-09T11:00:14.000Z,36.22
2018-07-09T11:01:14.001Z,36.09
2018-07-09T11:02:14.000Z,35.97
2018-07-09T11:03:14.000Z,36.23
2018-07-09T11:04:13.996Z,36.31
2018-07-09T11:05:13.997Z,36.32
2018-07-09T11:06:13.997Z,36.29
2018-07-09T11:07:13.993Z,36.08
2018-07-09T11:08:13.994Z,35.87
2018-07-09T11:09:13.994Z,35.65
2018-07-09T11:10:13.995Z,35.36
2018-07-09T11:11:13.992Z,35.25
2018-07-09T11:12:13.994Z,35.22
2018-07-09T11:13:13.991Z,34.96
2018-07-09T11:14:13.991Z,34.44
2018-07-09T11:15:13.991Z,34.19
2018-07-09T11:16:14.025Z,34.09
2018-07-09T11:17:14.007Z,34.10
2018-07-09T11:18:13.986Z,33.81
2018-07-09T11:19:13.988Z,33.47
2018-07-09T11:20:13.984Z,33.14
2018-07-09T11:21:13.988Z,33.04
2018-07-09T11:22:13.985Z,33.12
2018-07-09T11:23:13.984Z,32.85
2018-07-09T11:24:13.981Z,32.40
2018-07-09T11:25:13.985Z,32.57
2018-07-09T11:26:13.992Z,32.93
2018-07-09T11:27:13.978Z,32.44
2018-07-09T11:28:13.980Z,32.92
2018-07-09T11:29:13.981Z,33.07
2018-07-09T11:30:13.978Z,33.28
2018-07-09T11:31:13.978Z,33.19
2018-07-09T11:32:13.978Z,33.47
2018-07-09T11:33:13.977Z,33.71
2018-07-09T11:34:13.972Z,33.73
2018-07-09T11:35:13.972Z,34.27
2018-07-09T11:36:13.973Z,34.70
2018-07-09T11:37:13.971Z,34.87
2018-07-09T11:38:13.972Z,35.06
2018-07-09T11:39:13.972Z,35.37
2018-07-09T11:40:13.976Z,35.65
2018-07-09T11:41:13.972Z,35.74
2018-07-09T11:42:14.030Z,35.78
2018-07-09T11:43:14.012Z,35.37
2018-07-09T11:44:13.972Z,35.18
2018-07-09T11:45:13.979Z,35.28
2018-07-09T11:46:13.966Z,35.40
2018-07-09T11:47:13.970Z,35.65
2018-07-09T11:48:13.966Z,35.94
2018-07-09T11:49:13.970Z,35.99
2018-07-09T11:50:13.968Z,35.71
2018-07-09T11:51:13.967Z,35.41
2018-07-09T11:52:14.033Z,34.89
2018-07-09T11:53:13.967Z,34.44
2018-07-09T11:54:13.966Z,34.28
2018-07-09T11:55:13.969Z,34.72
2018-07-09T11:56:13.977Z,34.53
2018-07-09T11:57:13.967Z,34.42
2018-07-09T11:58:13.964Z,33.57
2018-07-09T11:59:13.963Z,32.82
2018-07-09T12:00:13.964Z,32.47
2018-07-09T12:01:13.971Z,32.11
2018-07-09T12:02:13.960Z,31.84
2018-07-09T12:03:13.962Z,31.61
2018-07-09T12:04:13.966Z,31.41
2018-07-09T12:05:13.967Z,31.10
2018-07-09T12:06:13.967Z,30.92
2018-07-09T12:07:13.954Z,30.92
2018-07-09T12:08:14.000Z,30.77
2018-07-09T12:09:13.956Z,30.60
2018-07-09T12:10:13.951Z,30.24
2018-07-09T12:11:13.948Z,30.17
2018-07-09T12:12:13.955Z,30.02
2018-07-09T12:13:13.947Z,30.04
2018-07-09T12:14:13.945Z,29.90
2018-07-09T12:15:13.942Z,29.79
2018-07-09T12:16:13.944Z,29.67
2018-07-09T12:17:13.988Z,29.52
2018-07-09T12:18:13.935Z,29.39
2018-07-09T12:19:13.930Z,29.23
2018-07-09T12:20:13.928Z,29.24
2018-07-09T12:21:13.981Z,29.21
2018-07-09T12:22:13.923Z,29.11
2018-07-09T12:23:13.925Z,29.00
2018-07-09T12:24:13.920Z,29.11
2018-07-09T12:25:13.916Z,29.04
2018-07-09T12:26:13.916Z,29.05
2018-07-09T12:27:13.911Z,29.23
2018-07-09T12:28:13.909Z,29.23
2018-07-09T12:29:14.066Z,29.18
2018-07-09T12:30:13.904Z,29.30
2018-07-09T12:31:13.899Z,29.36
2018-07-09T12:32:13.895Z,29.36
2018-07-09T12:33:13.896Z,29.46
2018-07-09T12:34:13.892Z,29.46
2018-07-09T12:35:13.894Z,29.34
2018-07-09T12:36:14.024Z,29.19
2018-07-09T12:37:13.882Z,28.90
2018-07-09T12:38:13.876Z,28.66
2018-07-09T12:39:13.875Z,28.46
2018-07-09T12:40:13.871Z,28.37
2018-07-09T12:41:13.871Z,28.24
2018-07-09T12:42:13.872Z,28.12
2018-07-09T12:43:13.859Z,28.07
2018-07-09T12:44:13.859Z,28.03
2018-07-09T12:45:13.853Z,28.03
2018-07-09T12:46:13.848Z,28.04
2018-07-09T12:47:13.855Z,28.14
2018-07-09T12:48:13.843Z,28.09
2018-07-09T12:49:13.838Z,28.02
2018-07-09T12:50:13.834Z,28.02
2018-07-09T12:51:13.831Z,27.92
2018-07-09T12:52:13.827Z,27.94
2018-07-09T12:53:13.826Z,27.93
2018-07-09T12:54:13.818Z,28.03
2018-07-09T12:55:13.818Z,28.21
2018-07-09T12:56:13.812Z,28.06
2018-07-09T12:57:13.811Z,27.94